Time;durP1;ratioP1;P1;durP2;ratioP2;P2;SDS_P1;SDS_P2;PMS_P1;PMS_P2;Temp;Humidity;BMP_temperature;BMP_pressure;BME280_temperature;BME280_humidity;BME280_pressure;Samples;Min_cycle;Max_cycle;Signal;HPM_P1;HPM_P2
2022/08/02 00:00:37;;;;;;;;;1.00;1.00;;;;;;;;4959166;28;46952;-73
2022/08/02 00:03:03;;;;;;;;;3.33;1.33;;;;;;;;4959456;28;45370;-73
2022/08/02 00:05:28;;;;;;;;;2.00;2.00;;;;;;;;4959554;28;45338;-73
2022/08/02 00:07:53;;;;;;;;;2.00;2.00;;;;;;;;4958577;28;45356;-73
2022/08/02 00:10:18;;;;;;;;;3.00;3.00;;;;;;;;4959336;28;45379;-73
2022/08/02 00:12:43;;;;;;;;;1.33;1.33;;;;;;;;4958346;28;45406;-73
2022/08/02 00:15:09;;;;;;;;;1.00;1.00;;;;;;;;4954372;28;45406;-73
2022/08/02 00:17:35;;;;;;;;;1.00;1.00;;;;;;;;4950177;28;45490;-74
2022/08/02 00:20:01;;;;;;;;;2.67;2.67;;;;;;;;4958674;28;45796;-73
2022/08/02 00:22:26;;;;;;;;;1.00;1.00;;;;;;;;4958168;28;45437;-73
2022/08/02 00:24:51;;;;;;;;;2.67;2.67;;;;;;;;4958964;28;45402;-73
2022/08/02 00:27:16;;;;;;;;;1.00;1.00;;;;;;;;4956331;28;45294;-73
2022/08/02 00:29:41;;;;;;;;;2.00;2.00;;;;;;;;4958887;28;45399;-73
2022/08/02 00:32:07;;;;;;;;;2.00;2.00;;;;;;;;4957968;28;45412;-73
2022/08/02 00:34:32;;;;;;;;;2.00;2.00;;;;;;;;4957040;28;45409;-73
2022/08/02 00:36:57;;;;;;;;;2.33;1.00;;;;;;;;4958494;28;45527;-73
2022/08/02 00:39:22;;;;;;;;;1.67;1.67;;;;;;;;4958428;28;45367;-73
2022/08/02 00:41:49;;;;;;;;;1.00;1.00;;;;;;;;4955214;28;45465;-73
2022/08/02 00:44:15;;;;;;;;;2.00;2.00;;;;;;;;4959037;28;45445;-73
2022/08/02 00:46:40;;;;;;;;;0.67;0.67;;;;;;;;4958188;28;45334;-73
2022/08/02 00:49:05;;;;;;;;;3.00;3.00;;;;;;;;4958620;28;47199;-73
2022/08/02 00:51:31;;;;;;;;;2.67;1.00;;;;;;;;4957769;28;45350;-73
2022/08/02 00:53:56;;;;;;;;;3.00;2.00;;;;;;;;4958346;28;45478;-74
2022/08/02 00:56:21;;;;;;;;;1.00;1.00;;;;;;;;4959231;28;45235;-74
2022/08/02 00:58:46;;;;;;;;;1.67;1.67;;;;;;;;4958298;28;45496;-73
2022/08/02 01:01:11;;;;;;;;;1.00;1.00;;;;;;;;4958537;28;45356;-73
2022/08/02 01:03:36;;;;;;;;;2.00;2.00;;;;;;;;4958686;28;45326;-73
2022/08/02 01:06:02;;;;;;;;;2.00;2.00;;;;;;;;4958001;28;45191;-73
2022/08/02 01:08:27;;;;;;;;;0.33;0.33;;;;;;;;4958138;28;46624;-72
2022/08/02 01:10:52;;;;;;;;;2.33;2.33;;;;;;;;4958228;28;45400;-73
2022/08/02 01:13:17;;;;;;;;;1.67;1.67;;;;;;;;4958450;28;45474;-73
2022/08/02 01:15:46;;;;;;;;;2.00;2.00;;;;;;;;4949082;28;45548;-73
2022/08/02 01:18:25;;;;;;;;;2.33;2.00;;;;;;;;4954008;28;45386;-72
2022/08/02 01:20:50;;;;;;;;;1.33;1.33;;;;;;;;4958408;28;45539;-73
2022/08/02 01:23:28;;;;;;;;;1.33;1.33;;;;;;;;4958152;28;45309;-73
2022/08/02 01:26:12;;;;;;;;;3.00;1.00;;;;;;;;4958611;28;45336;-73
2022/08/02 01:28:43;;;;;;;;;1.00;1.00;;;;;;;;4957335;28;46092;-73
2022/08/02 01:31:15;;;;;;;;;2.67;2.00;;;;;;;;4957250;28;45331;-73
2022/08/02 01:33:44;;;;;;;;;2.00;2.00;;;;;;;;4957673;28;45335;-73
2022/08/02 01:36:11;;;;;;;;;3.33;2.00;;;;;;;;4958185;28;45303;-73
2022/08/02 01:38:39;;;;;;;;;2.00;2.00;;;;;;;;4957790;28;46212;-73
2022/08/02 01:41:04;;;;;;;;;1.67;1.67;;;;;;;;4957576;28;45379;-73
2022/08/02 01:43:30;;;;;;;;;2.00;2.00;;;;;;;;4957707;28;45447;-73
2022/08/02 01:45:56;;;;;;;;;2.33;1.33;;;;;;;;4957771;28;45326;-73
2022/08/02 01:48:23;;;;;;;;;2.00;2.00;;;;;;;;4957552;28;45526;-73
2022/08/02 01:50:49;;;;;;;;;1.00;1.00;;;;;;;;4957576;28;45475;-73
2022/08/02 01:53:17;;;;;;;;;2.00;2.00;;;;;;;;4957762;28;45338;-73
2022/08/02 01:55:44;;;;;;;;;2.00;2.00;;;;;;;;4957942;28;45408;-73
2022/08/02 01:58:13;;;;;;;;;3.00;2.00;;;;;;;;4957009;28;47107;-73
2022/08/02 02:00:39;;;;;;;;;1.00;1.00;;;;;;;;4957460;28;45520;-73
2022/08/02 02:03:07;;;;;;;;;1.67;1.67;;;;;;;;4957273;28;45331;-73
2022/08/02 02:05:34;;;;;;;;;1.00;1.00;;;;;;;;4957578;28;45374;-74
2022/08/02 02:08:00;;;;;;;;;2.00;2.00;;;;;;;;4949162;28;45343;-73
2022/08/02 02:10:30;;;;;;;;;1.33;1.33;;;;;;;;4957360;28;45433;-73
2022/08/02 02:12:57;;;;;;;;;2.00;2.00;;;;;;;;4957413;28;45406;-73
2022/08/02 02:15:23;;;;;;;;;0.33;0.33;;;;;;;;4951798;28;45233;-75
2022/08/02 02:17:50;;;;;;;;;3.00;3.00;;;;;;;;4956453;28;46458;-73
2022/08/02 02:20:16;;;;;;;;;1.67;1.67;;;;;;;;4955924;28;46389;-74
2022/08/02 02:22:42;;;;;;;;;1.67;1.67;;;;;;;;4957337;28;45338;-74
2022/08/02 02:25:08;;;;;;;;;1.33;1.33;;;;;;;;4957058;28;45549;-74
2022/08/02 02:27:34;;;;;;;;;1.67;1.67;;;;;;;;4957087;28;47003;-74
2022/08/02 02:30:01;;;;;;;;;2.00;2.00;;;;;;;;4957266;28;45394;-73
2022/08/02 02:32:27;;;;;;;;;2.67;2.67;;;;;;;;4956776;28;45254;-75
2022/08/02 02:34:54;;;;;;;;;2.00;1.00;;;;;;;;4957130;28;45239;-75
2022/08/02 02:37:21;;;;;;;;;2.00;2.00;;;;;;;;4955405;28;48584;-74
2022/08/02 02:39:48;;;;;;;;;1.33;1.33;;;;;;;;4956814;28;45430;-74
2022/08/02 02:42:15;;;;;;;;;1.00;1.00;;;;;;;;4956553;28;45382;-74
2022/08/02 02:44:43;;;;;;;;;2.00;1.00;;;;;;;;4956988;28;45983;-75
2022/08/02 02:47:09;;;;;;;;;3.00;1.00;;;;;;;;4956381;28;46552;-73
2022/08/02 02:49:35;;;;;;;;;2.00;2.00;;;;;;;;4957196;28;45361;-73
2022/08/02 02:52:02;;;;;;;;;2.33;2.33;;;;;;;;4956978;28;45287;-74
2022/08/02 02:54:29;;;;;;;;;3.33;2.00;;;;;;;;4956883;28;45354;-74
2022/08/02 02:56:54;;;;;;;;;0.33;0.33;;;;;;;;4956758;28;47070;-74
2022/08/02 02:59:19;;;;;;;;;2.00;2.00;;;;;;;;4956392;28;45500;-73
2022/08/02 03:01:45;;;;;;;;;1.67;1.67;;;;;;;;4956618;28;45293;-74
2022/08/02 03:04:11;;;;;;;;;2.00;2.00;;;;;;;;4956918;28;45510;-73
2022/08/02 03:06:37;;;;;;;;;1.67;1.67;;;;;;;;4956561;28;46698;-74
2022/08/02 03:09:03;;;;;;;;;1.00;1.00;;;;;;;;4956742;28;45234;-74
2022/08/02 03:11:28;;;;;;;;;0.33;0.33;;;;;;;;4956634;28;45575;-75
2022/08/02 03:13:55;;;;;;;;;2.00;2.00;;;;;;;;4956696;28;46382;-73
2022/08/02 03:16:20;;;;;;;;;2.00;2.00;;;;;;;;4942636;28;45500;-74
2022/08/02 03:18:45;;;;;;;;;1.00;1.00;;;;;;;;4956674;28;45385;-74
2022/08/02 03:21:11;;;;;;;;;2.00;2.00;;;;;;;;4956962;28;45402;-74
2022/08/02 03:23:37;;;;;;;;;1.00;1.00;;;;;;;;4956579;28;45464;-74
2022/08/02 03:26:03;;;;;;;;;2.00;2.00;;;;;;;;4956433;28;46268;-74
2022/08/02 03:28:28;;;;;;;;;1.67;1.67;;;;;;;;4956218;28;45389;-73
2022/08/02 03:30:53;;;;;;;;;2.00;2.00;;;;;;;;4959000;28;45326;-74
2022/08/02 03:33:19;;;;;;;;;2.00;1.00;;;;;;;;4960006;28;45459;-74
2022/08/02 03:35:46;;;;;;;;;3.00;2.00;;;;;;;;4959550;28;46303;-74
2022/08/02 03:38:12;;;;;;;;;3.00;1.67;;;;;;;;4959528;28;45294;-75
2022/08/02 03:40:37;;;;;;;;;2.00;2.00;;;;;;;;4959360;28;45463;-74
2022/08/02 03:43:03;;;;;;;;;1.67;1.67;;;;;;;;4959747;28;45593;-73
2022/08/02 03:45:29;;;;;;;;;2.00;2.00;;;;;;;;4959177;28;46080;-73
2022/08/02 03:47:55;;;;;;;;;1.33;1.33;;;;;;;;4959074;28;45447;-74
2022/08/02 03:50:21;;;;;;;;;1.00;1.00;;;;;;;;4959523;28;45452;-74
2022/08/02 03:52:47;;;;;;;;;0.67;0.67;;;;;;;;4959759;28;45366;-74
2022/08/02 03:55:12;;;;;;;;;1.00;1.00;;;;;;;;4959143;28;45486;-73
2022/08/02 03:57:38;;;;;;;;;2.00;2.00;;;;;;;;4959068;28;45438;-73
2022/08/02 04:00:04;;;;;;;;;2.00;2.00;;;;;;;;4959454;28;45385;-74
2022/08/02 04:02:29;;;;;;;;;2.00;2.00;;;;;;;;4959383;28;45486;-73
2022/08/02 04:04:55;;;;;;;;;2.00;1.00;;;;;;;;4959578;28;46268;-73
2022/08/02 04:07:20;;;;;;;;;2.00;2.00;;;;;;;;4959228;28;45565;-74
2022/08/02 04:09:45;;;;;;;;;2.00;2.00;;;;;;;;4954815;28;45349;-75
2022/08/02 04:12:10;;;;;;;;;1.00;1.00;;;;;;;;4959074;28;45275;-73
2022/08/02 04:14:35;;;;;;;;;1.00;1.00;;;;;;;;4958376;28;45347;-74
2022/08/02 04:17:03;;;;;;;;;1.33;1.33;;;;;;;;4944737;28;45354;-74
2022/08/02 04:19:36;;;;;;;;;0.33;0.33;;;;;;;;4959278;28;45327;-74
2022/08/02 04:22:06;;;;;;;;;2.00;2.00;;;;;;;;4959104;28;45324;-73
2022/08/02 04:24:34;;;;;;;;;2.00;2.00;;;;;;;;4959194;28;46101;-74
2022/08/02 04:27:00;;;;;;;;;1.33;1.33;;;;;;;;4958492;28;45455;-74
2022/08/02 04:29:26;;;;;;;;;1.33;1.33;;;;;;;;4958932;28;45260;-74
2022/08/02 04:31:52;;;;;;;;;2.33;2.33;;;;;;;;4959106;28;45275;-74
2022/08/02 04:34:18;;;;;;;;;2.00;2.00;;;;;;;;4958741;28;45346;-73
2022/08/02 04:36:43;;;;;;;;;2.33;2.33;;;;;;;;4958454;28;45343;-73
2022/08/02 04:39:09;;;;;;;;;1.33;1.33;;;;;;;;4959148;28;45359;-74
2022/08/02 04:41:37;;;;;;;;;1.33;1.33;;;;;;;;4957213;28;45331;-73
2022/08/02 04:44:03;;;;;;;;;1.33;1.33;;;;;;;;4958558;28;45496;-74
2022/08/02 04:46:28;;;;;;;;;2.00;2.00;;;;;;;;4958878;28;45343;-74
2022/08/02 04:48:53;;;;;;;;;1.33;1.33;;;;;;;;4958580;28;45500;-73
2022/08/02 04:51:18;;;;;;;;;2.00;1.00;;;;;;;;4959070;28;45351;-74
2022/08/02 04:53:43;;;;;;;;;2.00;2.00;;;;;;;;4958399;28;46071;-73
2022/08/02 04:56:09;;;;;;;;;1.00;1.00;;;;;;;;4958379;28;45572;-73
2022/08/02 04:58:34;;;;;;;;;2.00;2.00;;;;;;;;4958997;28;45481;-73
2022/08/02 05:00:59;;;;;;;;;2.00;2.00;;;;;;;;4958582;28;45465;-74
2022/08/02 05:03:24;;;;;;;;;3.00;3.00;;;;;;;;4958522;28;46965;-74
2022/08/02 05:05:50;;;;;;;;;1.00;1.00;;;;;;;;4958103;28;45429;-74
2022/08/02 05:08:15;;;;;;;;;2.00;2.00;;;;;;;;4958723;28;45473;-73
2022/08/02 05:10:40;;;;;;;;;3.00;2.00;;;;;;;;4958161;28;45343;-73
2022/08/02 05:13:05;;;;;;;;;1.00;1.00;;;;;;;;4958260;28;45245;-74
2022/08/02 05:15:31;;;;;;;;;1.33;1.33;;;;;;;;4954349;28;45279;-73
2022/08/02 05:17:56;;;;;;;;;2.00;2.00;;;;;;;;4958436;28;45224;-75
2022/08/02 05:20:21;;;;;;;;;1.00;1.00;;;;;;;;4958487;28;45630;-74
2022/08/02 05:22:46;;;;;;;;;1.00;1.00;;;;;;;;4958310;28;45965;-73
2022/08/02 05:25:11;;;;;;;;;2.33;2.33;;;;;;;;4957390;28;45617;-74
2022/08/02 05:27:37;;;;;;;;;1.67;1.67;;;;;;;;4958231;28;45588;-74
2022/08/02 05:30:03;;;;;;;;;2.33;2.33;;;;;;;;4958053;28;45372;-77
2022/08/02 05:32:28;;;;;;;;;2.00;1.00;;;;;;;;4957866;28;45427;-75
2022/08/02 05:34:54;;;;;;;;;1.00;1.00;;;;;;;;4957811;28;45338;-74
2022/08/02 05:37:19;;;;;;;;;2.00;2.00;;;;;;;;4958334;28;45330;-78
2022/08/02 05:39:44;;;;;;;;;1.33;1.33;;;;;;;;4957661;28;45649;-75
2022/08/02 05:42:09;;;;;;;;;3.00;2.00;;;;;;;;4957634;28;46142;-74
2022/08/02 05:44:35;;;;;;;;;1.33;1.33;;;;;;;;4957732;28;45269;-73
2022/08/02 05:47:00;;;;;;;;;2.00;2.00;;;;;;;;4957972;28;45693;-73
2022/08/02 05:49:25;;;;;;;;;1.67;1.33;;;;;;;;4957586;28;45291;-73
2022/08/02 05:51:59;;;;;;;;;2.00;1.33;;;;;;;;4957717;28;46916;-74
2022/08/02 05:54:39;;;;;;;;;1.00;1.00;;;;;;;;4956344;28;45350;-73
2022/08/02 05:57:10;;;;;;;;;3.00;3.00;;;;;;;;4957557;28;45317;-73
2022/08/02 05:59:55;;;;;;;;;1.00;1.00;;;;;;;;4957533;28;45523;-75
2022/08/02 06:02:23;;;;;;;;;1.67;1.67;;;;;;;;4974638;28;45434;-76
2022/08/02 06:04:57;;;;;;;;;2.00;2.00;;;;;;;;4974875;28;45433;-77
2022/08/02 06:07:23;;;;;;;;;1.00;1.00;;;;;;;;4974711;28;45358;-74
2022/08/02 06:09:49;;;;;;;;;3.00;3.00;;;;;;;;4974338;28;45559;-74
2022/08/02 06:12:15;;;;;;;;;0.33;0.33;;;;;;;;4974711;28;45489;-74
2022/08/02 06:14:41;;;;;;;;;3.00;1.67;;;;;;;;4974508;28;45430;-74
2022/08/02 06:17:07;;;;;;;;;1.00;1.00;;;;;;;;4974447;28;45432;-75
2022/08/02 06:19:32;;;;;;;;;0.67;0.67;;;;;;;;4974776;28;45295;-74
2022/08/02 06:22:13;;;;;;;;;2.67;2.00;;;;;;;;4974440;28;47336;-74
2022/08/02 06:24:39;;;;;;;;;1.00;1.00;;;;;;;;4972903;28;45517;-74
2022/08/02 06:27:04;;;;;;;;;2.33;2.00;;;;;;;;4974594;28;45532;-74
2022/08/02 06:29:30;;;;;;;;;2.00;2.00;;;;;;;;4974516;28;45401;-75
2022/08/02 06:31:56;;;;;;;;;0.67;0.67;;;;;;;;4974104;28;47253;-74
2022/08/02 06:34:21;;;;;;;;;1.00;1.00;;;;;;;;4973968;28;45310;-74
2022/08/02 06:36:56;;;;;;;;;2.00;2.00;;;;;;;;4973748;28;45335;-74
2022/08/02 06:39:26;;;;;;;;;1.33;1.33;;;;;;;;4965378;28;45438;-74
2022/08/02 06:41:54;;;;;;;;;1.00;1.00;;;;;;;;4956470;28;47008;-74
2022/08/02 06:44:19;;;;;;;;;3.00;2.00;;;;;;;;4956933;28;45366;-74
2022/08/02 06:46:44;;;;;;;;;1.00;1.00;;;;;;;;4957282;28;45367;-74
2022/08/02 06:49:10;;;;;;;;;2.00;2.00;;;;;;;;4957092;28;45244;-75
2022/08/02 06:51:35;;;;;;;;;1.67;1.67;;;;;;;;4956864;28;46168;-74
2022/08/02 06:54:00;;;;;;;;;2.00;2.00;;;;;;;;4956580;28;45357;-75
2022/08/02 06:56:25;;;;;;;;;1.67;1.67;;;;;;;;4957360;28;45368;-74
2022/08/02 06:58:50;;;;;;;;;0.67;0.67;;;;;;;;4957258;28;45512;-75
2022/08/02 07:01:17;;;;;;;;;1.00;1.00;;;;;;;;4956495;28;46509;-75
2022/08/02 07:03:42;;;;;;;;;1.33;1.33;;;;;;;;4956901;28;45341;-74
2022/08/02 07:06:08;;;;;;;;;1.00;1.00;;;;;;;;4956395;28;45338;-74
2022/08/02 07:08:35;;;;;;;;;1.33;1.33;;;;;;;;4956602;28;45231;-74
2022/08/02 07:11:00;;;;;;;;;2.00;2.00;;;;;;;;4956605;28;46456;-74
2022/08/02 07:13:26;;;;;;;;;1.67;1.67;;;;;;;;4950397;28;45331;-74
2022/08/02 07:15:51;;;;;;;;;1.33;1.33;;;;;;;;4946526;28;45335;-74
2022/08/02 07:18:17;;;;;;;;;2.00;2.00;;;;;;;;4953368;28;45354;-74
2022/08/02 07:20:42;;;;;;;;;1.00;1.00;;;;;;;;4956366;28;45367;-74
2022/08/02 07:23:07;;;;;;;;;1.67;1.67;;;;;;;;4942768;28;45323;-74
2022/08/02 07:25:32;;;;;;;;;3.00;3.00;;;;;;;;4956791;28;45470;-73
2022/08/02 07:27:57;;;;;;;;;0.67;0.67;;;;;;;;4956005;28;45397;-74
2022/08/02 07:30:23;;;;;;;;;0.67;0.67;;;;;;;;4956167;28;46078;-74
2022/08/02 07:32:48;;;;;;;;;1.67;1.67;;;;;;;;4955822;28;45402;-75
2022/08/02 07:35:13;;;;;;;;;2.33;2.33;;;;;;;;4955670;28;45519;-74
2022/08/02 07:37:41;;;;;;;;;2.00;2.00;;;;;;;;4948843;28;45600;-74
2022/08/02 07:40:07;;;;;;;;;2.33;1.00;;;;;;;;4951315;28;47057;-74
2022/08/02 07:42:32;;;;;;;;;2.33;0.67;;;;;;;;4956268;28;45456;-74
2022/08/02 07:44:57;;;;;;;;;1.00;0.67;;;;;;;;4956152;28;45434;-74
2022/08/02 07:47:22;;;;;;;;;1.67;1.33;;;;;;;;4955850;28;45533;-74
2022/08/02 07:49:48;;;;;;;;;2.00;2.00;;;;;;;;4956167;28;47271;-75
2022/08/02 07:52:13;;;;;;;;;2.00;0.67;;;;;;;;4956115;28;45303;-74
2022/08/02 07:54:38;;;;;;;;;1.00;1.00;;;;;;;;4956593;28;45500;-74
2022/08/02 07:57:03;;;;;;;;;1.00;1.00;;;;;;;;4956486;28;45442;-75
2022/08/02 07:59:29;;;;;;;;;0.00;0.00;;;;;;;;4956021;28;45503;-74
2022/08/02 08:01:54;;;;;;;;;0.67;0.67;;;;;;;;4956275;28;45297;-74
2022/08/02 08:04:19;;;;;;;;;1.33;1.33;;;;;;;;4956034;28;45463;-74
2022/08/02 08:06:48;;;;;;;;;1.00;1.00;;;;;;;;4955864;28;45441;-74
2022/08/02 08:09:14;;;;;;;;;1.33;1.33;;;;;;;;4942431;28;45383;-74
2022/08/02 08:11:39;;;;;;;;;2.00;2.00;;;;;;;;4955788;28;45430;-75
2022/08/02 08:14:05;;;;;;;;;2.00;1.00;;;;;;;;4955976;28;45334;-75
2022/08/02 08:16:31;;;;;;;;;2.00;2.00;;;;;;;;4939297;28;45328;-74
2022/08/02 08:18:56;;;;;;;;;2.33;2.33;;;;;;;;4958203;28;45999;-74
2022/08/02 08:21:21;;;;;;;;;2.33;2.00;;;;;;;;4959148;28;45379;-74
2022/08/02 08:23:46;;;;;;;;;1.67;1.67;;;;;;;;4959311;28;45244;-74
2022/08/02 08:26:12;;;;;;;;;0.33;0.33;;;;;;;;4958943;28;45236;-74
2022/08/02 08:28:37;;;;;;;;;1.00;1.00;;;;;;;;4959159;28;46498;-73
2022/08/02 08:31:02;;;;;;;;;2.00;2.00;;;;;;;;4959081;28;46355;-74
2022/08/02 08:33:28;;;;;;;;;1.33;1.33;;;;;;;;4958628;28;45215;-74
2022/08/02 08:35:54;;;;;;;;;1.00;1.00;;;;;;;;4959243;28;45334;-74
2022/08/02 08:38:19;;;;;;;;;0.33;0.33;;;;;;;;4958961;28;45763;-74
2022/08/02 08:40:45;;;;;;;;;1.00;1.00;;;;;;;;4957993;28;45311;-74
2022/08/02 08:43:13;;;;;;;;;1.00;1.00;;;;;;;;4958860;28;45368;-75
2022/08/02 08:45:40;;;;;;;;;1.00;0.00;;;;;;;;4959013;28;46195;-74
2022/08/02 08:48:09;;;;;;;;;3.67;2.33;;;;;;;;4958544;28;46323;-74
2022/08/02 08:50:35;;;;;;;;;1.33;1.33;;;;;;;;4958697;28;45938;-74
2022/08/02 08:53:04;;;;;;;;;2.33;1.33;;;;;;;;4958909;28;45405;-74
2022/08/02 08:55:30;;;;;;;;;1.00;0.33;;;;;;;;4958367;28;45342;-74
2022/08/02 08:57:57;;;;;;;;;1.00;1.00;;;;;;;;4958675;28;46287;-74
2022/08/02 09:00:22;;;;;;;;;0.67;0.67;;;;;;;;4958612;28;45438;-74
2022/08/02 09:02:48;;;;;;;;;0.00;0.00;;;;;;;;4958319;28;45531;-74
2022/08/02 09:05:14;;;;;;;;;0.67;0.67;;;;;;;;4958657;28;46534;-74
2022/08/02 09:07:41;;;;;;;;;2.67;1.67;;;;;;;;4958417;28;47024;-74
2022/08/02 09:10:35;;;;;;;;;4.33;1.33;;;;;;;;4957884;28;45481;-74
2022/08/02 09:13:05;;;;;;;;;1.00;1.00;;;;;;;;4953568;28;45435;-74
2022/08/02 09:15:30;;;;;;;;;0.33;0.33;;;;;;;;4965572;28;45318;-74
2022/08/02 09:17:55;;;;;;;;;2.00;1.00;;;;;;;;4951699;28;46089;-74
2022/08/02 09:20:20;;;;;;;;;0.00;0.00;;;;;;;;4958241;28;45381;-74
2022/08/02 09:23:04;;;;;;;;;3.00;2.00;;;;;;;;4958572;28;45278;-75
2022/08/02 09:25:29;;;;;;;;;1.00;1.00;;;;;;;;4958387;28;45631;-75
2022/08/02 09:27:54;;;;;;;;;0.33;0.33;;;;;;;;4957780;28;46811;-75
2022/08/02 09:30:20;;;;;;;;;1.33;1.33;;;;;;;;4957840;28;45460;-74
2022/08/02 09:32:46;;;;;;;;;1.00;1.00;;;;;;;;4957946;28;45446;-74
2022/08/02 09:35:11;;;;;;;;;1.67;1.67;;;;;;;;4957561;28;45307;-74
2022/08/02 09:37:36;;;;;;;;;1.00;1.00;;;;;;;;4957826;28;46796;-74
2022/08/02 09:40:04;;;;;;;;;0.00;0.00;;;;;;;;4958169;28;45260;-75
2022/08/02 09:42:29;;;;;;;;;1.33;1.33;;;;;;;;4957359;28;45268;-75
2022/08/02 09:44:54;;;;;;;;;1.00;1.00;;;;;;;;4958102;28;45288;-74
2022/08/02 09:47:19;;;;;;;;;1.00;1.00;;;;;;;;4957013;28;46149;-75
2022/08/02 09:49:45;;;;;;;;;1.67;1.67;;;;;;;;4957904;28;45310;-75
2022/08/02 09:52:11;;;;;;;;;1.00;1.00;;;;;;;;4957662;28;45399;-75
2022/08/02 09:54:38;;;;;;;;;1.00;1.00;;;;;;;;4957474;28;45425;-74
2022/08/02 09:57:03;;;;;;;;;1.33;1.33;;;;;;;;4957673;28;45330;-74
2022/08/02 09:59:29;;;;;;;;;2.00;1.33;;;;;;;;4957344;28;45430;-74
2022/08/02 10:01:55;;;;;;;;;0.33;0.00;;;;;;;;4957606;28;45559;-74
2022/08/02 10:04:21;;;;;;;;;1.00;1.00;;;;;;;;4957373;28;45490;-73
2022/08/02 10:06:47;;;;;;;;;0.33;0.33;;;;;;;;4956913;28;45458;-74
2022/08/02 10:09:12;;;;;;;;;0.67;0.67;;;;;;;;4957484;28;45349;-74
2022/08/02 10:11:38;;;;;;;;;2.00;1.00;;;;;;;;4957773;28;45355;-75
2022/08/02 10:14:04;;;;;;;;;1.33;1.33;;;;;;;;4957266;28;45472;-74
2022/08/02 10:16:32;;;;;;;;;1.00;1.00;;;;;;;;4956971;28;46346;-74
2022/08/02 10:18:59;;;;;;;;;0.33;0.33;;;;;;;;4957066;28;45350;-74
2022/08/02 10:21:35;;;;;;;;;0.33;0.33;;;;;;;;4957331;28;45550;-74
2022/08/02 10:24:14;;;;;;;;;1.00;1.00;;;;;;;;4957447;28;45248;-74
2022/08/02 10:26:41;;;;;;;;;1.33;1.33;;;;;;;;4957002;28;46053;-75
2022/08/02 10:29:08;;;;;;;;;1.00;0.67;;;;;;;;4956919;28;45439;-74
2022/08/02 10:31:40;;;;;;;;;0.33;0.33;;;;;;;;4956932;28;45615;-74
2022/08/02 10:34:07;;;;;;;;;0.67;0.67;;;;;;;;4944388;28;45514;-74
2022/08/02 10:36:34;;;;;;;;;1.00;1.00;;;;;;;;4955663;28;45587;-74
2022/08/02 10:39:00;;;;;;;;;0.33;0.33;;;;;;;;4956186;28;45462;-74
2022/08/02 10:41:44;;;;;;;;;1.00;1.00;;;;;;;;4956338;28;45359;-74
2022/08/02 10:44:29;;;;;;;;;0.33;0.33;;;;;;;;4956288;28;45455;-74
2022/08/02 10:47:13;;;;;;;;;1.00;1.00;;;;;;;;4956860;28;45435;-75
2022/08/02 10:49:57;;;;;;;;;1.33;1.33;;;;;;;;4956360;28;45401;-74
2022/08/02 10:52:22;;;;;;;;;1.33;1.33;;;;;;;;4956533;28;45439;-75
2022/08/02 10:54:50;;;;;;;;;1.00;1.00;;;;;;;;4956746;28;45525;-74
2022/08/02 10:57:17;;;;;;;;;0.33;0.33;;;;;;;;4956612;28;46428;-73
2022/08/02 10:59:42;;;;;;;;;0.00;0.00;;;;;;;;4956404;28;45393;-74
2022/08/02 11:02:08;;;;;;;;;2.33;0.33;;;;;;;;4956990;28;45335;-73
2022/08/02 11:04:42;;;;;;;;;0.00;0.00;;;;;;;;4956997;28;45399;-73
2022/08/02 11:07:10;;;;;;;;;0.67;0.67;;;;;;;;4956681;28;46394;-74
2022/08/02 11:09:36;;;;;;;;;1.00;1.00;;;;;;;;4956168;28;45383;-74
2022/08/02 11:12:02;;;;;;;;;2.33;1.00;;;;;;;;4956838;28;45298;-74
2022/08/02 11:14:27;;;;;;;;;0.00;0.00;;;;;;;;4956486;28;45610;-74
2022/08/02 11:16:55;;;;;;;;;0.33;0.33;;;;;;;;4942975;28;46591;-74
2022/08/02 11:19:25;;;;;;;;;1.33;1.33;;;;;;;;4955878;28;45318;-74
2022/08/02 11:21:59;;;;;;;;;1.00;1.00;;;;;;;;4956192;28;45285;-74
2022/08/02 11:24:29;;;;;;;;;1.00;1.00;;;;;;;;4956576;28;45866;-74
2022/08/02 11:26:54;;;;;;;;;0.00;0.00;;;;;;;;4956378;28;46199;-74
2022/08/02 11:29:20;;;;;;;;;1.67;0.33;;;;;;;;4955938;28;45445;-74
2022/08/02 11:31:45;;;;;;;;;1.00;1.00;;;;;;;;4943076;28;45546;-73
2022/08/02 11:34:10;;;;;;;;;0.33;0.33;;;;;;;;4956418;28;45343;-75
2022/08/02 11:37:06;;;;;;;;;1.00;0.00;;;;;;;;4955482;28;46094;-74
2022/08/02 11:39:31;;;;;;;;;1.00;1.00;;;;;;;;4951842;28;45342;-74
2022/08/02 11:41:57;;;;;;;;;1.00;1.00;;;;;;;;4955563;28;45358;-74
2022/08/02 11:44:24;;;;;;;;;1.33;0.00;;;;;;;;4956365;28;45216;-74
2022/08/02 11:46:56;;;;;;;;;0.00;0.00;;;;;;;;4955802;28;46192;-74
2022/08/02 11:49:22;;;;;;;;;1.00;1.00;;;;;;;;4950561;28;45292;-74
2022/08/02 11:51:54;;;;;;;;;0.00;0.00;;;;;;;;4958899;28;45276;-74
2022/08/02 11:54:24;;;;;;;;;2.00;1.00;;;;;;;;4959664;28;45429;-74
2022/08/02 11:56:49;;;;;;;;;0.33;0.33;;;;;;;;4959227;28;45342;-73
2022/08/02 11:59:14;;;;;;;;;2.33;0.00;;;;;;;;4959397;28;45398;-73
2022/08/02 12:01:39;;;;;;;;;0.67;0.67;;;;;;;;4959316;28;45337;-74
2022/08/02 12:04:05;;;;;;;;;1.00;1.00;;;;;;;;4959278;28;45356;-74
2022/08/02 12:06:31;;;;;;;;;0.33;0.33;;;;;;;;4959606;28;46219;-74
2022/08/02 12:09:02;;;;;;;;;1.00;1.00;;;;;;;;4959566;28;45306;-74
2022/08/02 12:11:28;;;;;;;;;1.00;1.00;;;;;;;;4959024;28;45340;-73
2022/08/02 12:13:53;;;;;;;;;3.00;1.33;;;;;;;;4958795;28;45303;-73
2022/08/02 12:19:18;;;;;;;;;1.33;1.33;;;;;;;;4959044;28;45375;-73
2022/08/02 12:21:43;;;;;;;;;0.00;0.00;;;;;;;;4959318;28;45258;-74
2022/08/02 12:24:09;;;;;;;;;0.33;0.33;;;;;;;;4954586;28;45405;-73
2022/08/02 12:26:44;;;;;;;;;1.33;1.33;;;;;;;;4953707;28;46263;-74
2022/08/02 12:29:10;;;;;;;;;1.00;1.00;;;;;;;;4958847;28;45358;-74
2022/08/02 12:31:48;;;;;;;;;0.67;0.33;;;;;;;;4958987;28;45473;-73
2022/08/02 12:34:16;;;;;;;;;0.00;0.00;;;;;;;;4959241;28;45563;-74
2022/08/02 12:36:42;;;;;;;;;1.00;1.00;;;;;;;;4957873;28;45397;-73
2022/08/02 12:39:10;;;;;;;;;3.00;1.00;;;;;;;;4958811;28;45352;-74
2022/08/02 12:41:36;;;;;;;;;0.33;0.33;;;;;;;;4958647;28;45302;-74
2022/08/02 12:44:01;;;;;;;;;0.33;0.33;;;;;;;;4958612;28;45241;-75
2022/08/02 12:46:26;;;;;;;;;1.00;1.00;;;;;;;;4958890;28;46268;-74
2022/08/02 12:48:52;;;;;;;;;1.00;1.00;;;;;;;;4958770;28;45374;-74
2022/08/02 12:51:32;;;;;;;;;0.67;0.67;;;;;;;;4958979;28;45437;-74
2022/08/02 12:54:17;;;;;;;;;0.67;0.67;;;;;;;;4958563;28;45520;-74
2022/08/02 12:56:42;;;;;;;;;0.33;0.33;;;;;;;;4958785;28;45435;-74
2022/08/02 12:59:08;;;;;;;;;1.00;1.00;;;;;;;;4958512;28;45395;-73
2022/08/02 13:01:33;;;;;;;;;0.67;0.67;;;;;;;;4957974;28;45378;-74
2022/08/02 13:03:58;;;;;;;;;0.33;0.33;;;;;;;;4956762;28;45381;-74
2022/08/02 13:06:24;;;;;;;;;0.33;0.33;;;;;;;;4958385;28;46206;-74
2022/08/02 13:08:50;;;;;;;;;0.33;0.33;;;;;;;;4958340;28;45430;-74
2022/08/02 13:11:15;;;;;;;;;0.33;0.33;;;;;;;;4958452;28;45499;-73
2022/08/02 13:13:41;;;;;;;;;0.33;0.00;;;;;;;;4958826;28;45541;-74
2022/08/02 13:16:07;;;;;;;;;2.00;1.00;;;;;;;;4945766;28;46375;-74
2022/08/02 13:18:32;;;;;;;;;0.00;0.00;;;;;;;;4958170;28;45401;-74
2022/08/02 13:20:57;;;;;;;;;0.00;0.00;;;;;;;;4958414;28;45399;-74
2022/08/02 13:23:25;;;;;;;;;0.33;0.33;;;;;;;;4957887;28;45275;-73
2022/08/02 13:25:53;;;;;;;;;1.00;1.00;;;;;;;;4958465;28;45589;-74
2022/08/02 13:28:19;;;;;;;;;0.67;0.33;;;;;;;;4957429;28;45302;-74
2022/08/02 13:30:45;;;;;;;;;0.67;0.67;;;;;;;;4958429;28;45343;-74
2022/08/02 13:33:11;;;;;;;;;0.33;0.33;;;;;;;;4958375;28;45382;-75
2022/08/02 13:35:36;;;;;;;;;1.33;0.33;;;;;;;;4962063;28;46143;-74
2022/08/02 13:38:03;;;;;;;;;1.67;1.67;;;;;;;;4957831;28;45362;-73
2022/08/02 13:40:28;;;;;;;;;0.33;0.33;;;;;;;;4957794;28;45512;-74
2022/08/02 13:42:53;;;;;;;;;0.00;0.00;;;;;;;;4957961;28;45430;-74
2022/08/02 13:45:18;;;;;;;;;1.00;1.00;;;;;;;;4957528;28;45968;-74
2022/08/02 13:47:44;;;;;;;;;2.00;1.00;;;;;;;;4957574;28;45204;-74
2022/08/02 13:50:09;;;;;;;;;0.33;0.33;;;;;;;;4958029;28;45965;-74
2022/08/02 13:52:35;;;;;;;;;0.00;0.00;;;;;;;;4957072;28;45357;-74
2022/08/02 13:55:00;;;;;;;;;1.00;1.00;;;;;;;;4957609;28;45227;-73
2022/08/02 13:57:25;;;;;;;;;0.33;0.33;;;;;;;;4957746;28;45295;-73
2022/08/02 13:59:50;;;;;;;;;1.33;0.33;;;;;;;;4958041;28;45259;-74
2022/08/02 14:02:16;;;;;;;;;0.33;0.33;;;;;;;;4957569;28;45287;-74
2022/08/02 14:04:41;;;;;;;;;1.67;1.67;;;;;;;;4957811;28;45997;-73
2022/08/02 14:07:06;;;;;;;;;2.33;2.33;;;;;;;;4956799;28;45484;-74
2022/08/02 14:09:31;;;;;;;;;0.33;0.33;;;;;;;;4957772;28;45484;-73
2022/08/02 14:12:00;;;;;;;;;2.00;0.33;;;;;;;;4957869;28;45360;-74
2022/08/02 14:14:25;;;;;;;;;0.33;0.33;;;;;;;;4956216;28;46162;-74
2022/08/02 14:16:51;;;;;;;;;2.00;1.00;;;;;;;;4944093;28;45377;-73
2022/08/02 14:19:16;;;;;;;;;0.00;0.00;;;;;;;;4957144;28;45516;-74
2022/08/02 14:21:41;;;;;;;;;0.00;0.00;;;;;;;;4956672;28;45558;-74
2022/08/02 14:24:07;;;;;;;;;1.00;1.00;;;;;;;;4952897;28;46875;-74
2022/08/02 14:26:32;;;;;;;;;0.33;0.33;;;;;;;;4952118;28;45329;-74
2022/08/02 14:28:57;;;;;;;;;1.00;1.00;;;;;;;;4957366;28;45330;-74
2022/08/02 14:31:22;;;;;;;;;0.00;0.00;;;;;;;;4957557;28;45319;-74
2022/08/02 14:33:48;;;;;;;;;0.33;0.33;;;;;;;;4956061;28;46110;-74
2022/08/02 14:36:13;;;;;;;;;1.00;0.33;;;;;;;;4956556;28;45388;-74
2022/08/02 14:38:38;;;;;;;;;1.33;0.00;;;;;;;;4955483;28;46462;-74
2022/08/02 14:41:03;;;;;;;;;1.00;1.00;;;;;;;;4948823;28;45401;-73
2022/08/02 14:46:12;;;;;;;;;3.00;1.00;;;;;;;;4945956;28;45414;-74